sensor_id;sensor_type;location;lat;lon;timestamp;P1;durP1;ratioP1;P2;durP2;ratioP2
23376;SDS011;14353;46.070;13.222;2023-12-29T00:01:51;8.40;;;7.50;;
23376;SDS011;14353;46.070;13.222;2023-12-29T00:04:17;8.45;;;7.57;;
23376;SDS011;14353;46.070;13.222;2023-12-29T00:06:42;9.07;;;7.63;;
23376;SDS011;14353;46.070;13.222;2023-12-29T00:09:08;8.80;;;7.90;;
23376;SDS011;14353;46.070;13.222;2023-12-29T00:11:34;9.88;;;7.63;;
23376;SDS011;14353;46.070;13.222;2023-12-29T00:13:59;9.35;;;8.13;;
23376;SDS011;14353;46.070;13.222;2023-12-29T00:16:27;8.73;;;7.38;;
23376;SDS011;14353;46.070;13.222;2023-12-29T00:18:53;8.63;;;7.30;;
23376;SDS011;14353;46.070;13.222;2023-12-29T00:21:18;8.50;;;7.40;;
23376;SDS011;14353;46.070;13.222;2023-12-29T00:23:44;8.23;;;7.22;;
23376;SDS011;14353;46.070;13.222;2023-12-29T00:26:10;10.18;;;8.25;;
23376;SDS011;14353;46.070;13.222;2023-12-29T00:28:35;8.60;;;7.32;;
23376;SDS011;14353;46.070;13.222;2023-12-29T00:31:05;8.63;;;7.65;;
23376;SDS011;14353;46.070;13.222;2023-12-29T00:33:31;8.52;;;7.63;;
23376;SDS011;14353;46.070;13.222;2023-12-29T00:35:57;8.75;;;7.63;;
23376;SDS011;14353;46.070;13.222;2023-12-29T00:38:24;9.55;;;8.35;;
23376;SDS011;14353;46.070;13.222;2023-12-29T00:40:51;9.07;;;8.15;;
23376;SDS011;14353;46.070;13.222;2023-12-29T00:43:17;8.98;;;8.07;;
23376;SDS011;14353;46.070;13.222;2023-12-29T00:45:42;9.32;;;8.00;;
23376;SDS011;14353;46.070;13.222;2023-12-29T00:48:08;8.77;;;7.88;;
23376;SDS011;14353;46.070;13.222;2023-12-29T00:50:34;8.55;;;7.63;;
23376;SDS011;14353;46.070;13.222;2023-12-29T00:53:00;9.43;;;8.27;;
23376;SDS011;14353;46.070;13.222;2023-12-29T00:55:26;9.05;;;8.10;;
23376;SDS011;14353;46.070;13.222;2023-12-29T00:57:51;8.85;;;7.78;;
23376;SDS011;14353;46.070;13.222;2023-12-29T01:00:17;8.95;;;7.82;;
23376;SDS011;14353;46.070;13.222;2023-12-29T01:02:43;9.63;;;8.48;;
23376;SDS011;14353;46.070;13.222;2023-12-29T01:05:08;9.05;;;7.72;;
23376;SDS011;14353;46.070;13.222;2023-12-29T01:07:34;9.05;;;8.00;;
23376;SDS011;14353;46.070;13.222;2023-12-29T01:10:00;8.80;;;7.85;;
23376;SDS011;14353;46.070;13.222;2023-12-29T01:12:26;9.82;;;8.60;;
23376;SDS011;14353;46.070;13.222;2023-12-29T01:14:52;9.70;;;7.90;;
23376;SDS011;14353;46.070;13.222;2023-12-29T01:17:17;11.85;;;8.10;;
23376;SDS011;14353;46.070;13.222;2023-12-29T01:19:43;9.95;;;8.25;;
23376;SDS011;14353;46.070;13.222;2023-12-29T01:22:09;8.80;;;7.88;;
23376;SDS011;14353;46.070;13.222;2023-12-29T01:24:34;8.50;;;7.63;;
23376;SDS011;14353;46.070;13.222;2023-12-29T01:27:00;10.30;;;8.20;;
23376;SDS011;14353;46.070;13.222;2023-12-29T01:29:29;9.90;;;8.40;;
23376;SDS011;14353;46.070;13.222;2023-12-29T01:31:54;8.93;;;8.00;;
23376;SDS011;14353;46.070;13.222;2023-12-29T01:34:20;9.52;;;8.55;;
23376;SDS011;14353;46.070;13.222;2023-12-29T01:36:46;8.77;;;7.80;;
23376;SDS011;14353;46.070;13.222;2023-12-29T01:39:11;9.02;;;8.13;;
23376;SDS011;14353;46.070;13.222;2023-12-29T01:41:37;9.57;;;8.15;;
23376;SDS011;14353;46.070;13.222;2023-12-29T01:46:29;9.45;;;8.50;;
23376;SDS011;14353;46.070;13.222;2023-12-29T01:48:57;10.05;;;9.05;;
23376;SDS011;14353;46.070;13.222;2023-12-29T01:51:23;8.85;;;7.90;;
23376;SDS011;14353;46.070;13.222;2023-12-29T01:53:51;9.25;;;8.25;;
23376;SDS011;14353;46.070;13.222;2023-12-29T01:56:19;9.45;;;8.23;;
23376;SDS011;14353;46.070;13.222;2023-12-29T01:58:46;8.95;;;8.05;;
23376;SDS011;14353;46.070;13.222;2023-12-29T02:01:16;9.20;;;8.27;;
23376;SDS011;14353;46.070;13.222;2023-12-29T02:03:44;9.90;;;8.20;;
23376;SDS011;14353;46.070;13.222;2023-12-29T02:06:10;8.98;;;8.07;;
23376;SDS011;14353;46.070;13.222;2023-12-29T02:08:37;8.90;;;8.00;;
23376;SDS011;14353;46.070;13.222;2023-12-29T02:11:05;9.23;;;8.32;;
23376;SDS011;14353;46.070;13.222;2023-12-29T02:13:31;8.93;;;8.02;;
23376;SDS011;14353;46.070;13.222;2023-12-29T02:15:59;9.25;;;8.25;;
23376;SDS011;14353;46.070;13.222;2023-12-29T02:18:30;9.55;;;8.60;;
23376;SDS011;14353;46.070;13.222;2023-12-29T02:20:59;9.20;;;8.10;;
23376;SDS011;14353;46.070;13.222;2023-12-29T02:23:24;9.38;;;8.15;;
23376;SDS011;14353;46.070;13.222;2023-12-29T02:25:50;9.32;;;8.32;;
23376;SDS011;14353;46.070;13.222;2023-12-29T02:28:23;9.52;;;8.10;;
23376;SDS011;14353;46.070;13.222;2023-12-29T02:31:07;9.30;;;8.30;;
23376;SDS011;14353;46.070;13.222;2023-12-29T02:33:42;9.68;;;8.13;;
23376;SDS011;14353;46.070;13.222;2023-12-29T02:36:10;9.15;;;8.15;;
23376;SDS011;14353;46.070;13.222;2023-12-29T02:38:38;9.43;;;8.43;;
23376;SDS011;14353;46.070;13.222;2023-12-29T02:41:04;10.07;;;7.93;;
23376;SDS011;14353;46.070;13.222;2023-12-29T02:43:31;9.20;;;7.80;;
23376;SDS011;14353;46.070;13.222;2023-12-29T02:45:57;8.35;;;7.40;;
23376;SDS011;14353;46.070;13.222;2023-12-29T02:48:23;9.57;;;8.05;;
23376;SDS011;14353;46.070;13.222;2023-12-29T02:50:49;9.35;;;8.35;;
23376;SDS011;14353;46.070;13.222;2023-12-29T02:53:15;9.70;;;8.30;;
23376;SDS011;14353;46.070;13.222;2023-12-29T02:55:41;9.25;;;8.25;;
23376;SDS011;14353;46.070;13.222;2023-12-29T02:58:06;9.00;;;8.05;;
23376;SDS011;14353;46.070;13.222;2023-12-29T03:00:33;9.77;;;8.68;;
23376;SDS011;14353;46.070;13.222;2023-12-29T03:02:59;9.43;;;8.10;;
23376;SDS011;14353;46.070;13.222;2023-12-29T03:05:25;9.05;;;7.82;;
23376;SDS011;14353;46.070;13.222;2023-12-29T03:07:51;9.90;;;8.68;;
23376;SDS011;14353;46.070;13.222;2023-12-29T03:10:17;9.07;;;8.18;;
23376;SDS011;14353;46.070;13.222;2023-12-29T03:12:42;9.63;;;7.93;;
23376;SDS011;14353;46.070;13.222;2023-12-29T03:15:08;9.70;;;8.40;;
23376;SDS011;14353;46.070;13.222;2023-12-29T03:17:34;8.73;;;7.82;;
23376;SDS011;14353;46.070;13.222;2023-12-29T03:20:00;9.30;;;8.30;;
23376;SDS011;14353;46.070;13.222;2023-12-29T03:22:27;9.35;;;8.35;;
23376;SDS011;14353;46.070;13.222;2023-12-29T03:24:53;9.18;;;8.15;;
23376;SDS011;14353;46.070;13.222;2023-12-29T03:27:19;9.00;;;7.85;;
23376;SDS011;14353;46.070;13.222;2023-12-29T03:29:45;9.25;;;8.05;;
23376;SDS011;14353;46.070;13.222;2023-12-29T03:32:10;9.60;;;8.48;;
23376;SDS011;14353;46.070;13.222;2023-12-29T03:34:36;8.73;;;7.82;;
23376;SDS011;14353;46.070;13.222;2023-12-29T03:37:02;10.23;;;8.85;;
23376;SDS011;14353;46.070;13.222;2023-12-29T03:39:27;9.30;;;8.40;;
23376;SDS011;14353;46.070;13.222;2023-12-29T03:41:54;10.35;;;8.10;;
23376;SDS011;14353;46.070;13.222;2023-12-29T03:44:20;9.35;;;8.35;;
23376;SDS011;14353;46.070;13.222;2023-12-29T03:46:46;9.52;;;8.48;;
23376;SDS011;14353;46.070;13.222;2023-12-29T03:49:11;8.90;;;7.80;;
23376;SDS011;14353;46.070;13.222;2023-12-29T03:51:37;9.02;;;8.02;;
23376;SDS011;14353;46.070;13.222;2023-12-29T03:54:03;9.52;;;8.35;;
23376;SDS011;14353;46.070;13.222;2023-12-29T03:56:29;9.38;;;8.32;;
23376;SDS011;14353;46.070;13.222;2023-12-29T03:58:54;9.80;;;8.80;;
23376;SDS011;14353;46.070;13.222;2023-12-29T04:01:20;9.73;;;8.43;;
23376;SDS011;14353;46.070;13.222;2023-12-29T04:03:46;8.85;;;7.95;;
23376;SDS011;14353;46.070;13.222;2023-12-29T04:06:12;9.25;;;8.10;;
23376;SDS011;14353;46.070;13.222;2023-12-29T04:08:37;9.57;;;8.57;;
23376;SDS011;14353;46.070;13.222;2023-12-29T04:11:03;8.80;;;7.90;;
23376;SDS011;14353;46.070;13.222;2023-12-29T04:13:30;9.13;;;8.18;;
23376;SDS011;14353;46.070;13.222;2023-12-29T04:15:56;8.48;;;7.68;;
23376;SDS011;14353;46.070;13.222;2023-12-29T04:18:23;8.80;;;7.90;;
23376;SDS011;14353;46.070;13.222;2023-12-29T04:20:49;9.27;;;8.32;;
23376;SDS011;14353;46.070;13.222;2023-12-29T04:23:15;9.85;;;8.13;;
23376;SDS011;14353;46.070;13.222;2023-12-29T04:25:41;8.57;;;7.68;;
23376;SDS011;14353;46.070;13.222;2023-12-29T04:28:07;8.25;;;7.45;;
23376;SDS011;14353;46.070;13.222;2023-12-29T04:30:36;10.00;;;8.27;;
23376;SDS011;14353;46.070;13.222;2023-12-29T04:33:02;9.70;;;8.30;;
23376;SDS011;14353;46.070;13.222;2023-12-29T04:35:28;9.55;;;8.10;;
23376;SDS011;14353;46.070;13.222;2023-12-29T04:37:53;8.63;;;7.72;;
23376;SDS011;14353;46.070;13.222;2023-12-29T04:40:19;8.95;;;8.05;;
23376;SDS011;14353;46.070;13.222;2023-12-29T04:42:45;9.05;;;8.05;;
23376;SDS011;14353;46.070;13.222;2023-12-29T04:45:11;8.25;;;7.28;;
23376;SDS011;14353;46.070;13.222;2023-12-29T04:47:37;9.60;;;7.90;;
23376;SDS011;14353;46.070;13.222;2023-12-29T04:50:03;9.40;;;8.00;;
23376;SDS011;14353;46.070;13.222;2023-12-29T04:52:29;8.63;;;7.72;;
23376;SDS011;14353;46.070;13.222;2023-12-29T04:54:54;8.90;;;8.00;;
23376;SDS011;14353;46.070;13.222;2023-12-29T04:57:20;9.25;;;8.25;;
23376;SDS011;14353;46.070;13.222;2023-12-29T04:59:46;8.85;;;7.95;;
23376;SDS011;14353;46.070;13.222;2023-12-29T05:02:11;8.60;;;7.70;;
23376;SDS011;14353;46.070;13.222;2023-12-29T05:04:37;9.00;;;8.02;;
23376;SDS011;14353;46.070;13.222;2023-12-29T05:07:04;8.43;;;7.63;;
23376;SDS011;14353;46.070;13.222;2023-12-29T05:09:30;9.15;;;7.55;;
23376;SDS011;14353;46.070;13.222;2023-12-29T05:11:56;8.25;;;7.20;;
23376;SDS011;14353;46.070;13.222;2023-12-29T05:14:22;9.70;;;8.32;;
23376;SDS011;14353;46.070;13.222;2023-12-29T05:16:47;9.23;;;7.68;;
23376;SDS011;14353;46.070;13.222;2023-12-29T05:19:13;8.93;;;8.02;;
23376;SDS011;14353;46.070;13.222;2023-12-29T05:21:39;8.15;;;7.35;;
23376;SDS011;14353;46.070;13.222;2023-12-29T05:24:04;8.95;;;7.40;;
23376;SDS011;14353;46.070;13.222;2023-12-29T05:26:31;8.98;;;8.07;;
23376;SDS011;14353;46.070;13.222;2023-12-29T05:28:57;8.57;;;7.68;;
23376;SDS011;14353;46.070;13.222;2023-12-29T05:31:22;8.57;;;7.70;;
23376;SDS011;14353;46.070;13.222;2023-12-29T05:33:48;8.88;;;7.85;;
23376;SDS011;14353;46.070;13.222;2023-12-29T05:36:14;9.10;;;7.82;;
23376;SDS011;14353;46.070;13.222;2023-12-29T05:38:39;8.43;;;7.55;;
23376;SDS011;14353;46.070;13.222;2023-12-29T05:41:06;8.88;;;7.97;;
23376;SDS011;14353;46.070;13.222;2023-12-29T05:43:32;9.25;;;7.85;;
23376;SDS011;14353;46.070;13.222;2023-12-29T05:45:59;8.93;;;7.75;;
23376;SDS011;14353;46.070;13.222;2023-12-29T05:48:25;8.57;;;7.68;;
23376;SDS011;14353;46.070;13.222;2023-12-29T05:50:51;8.73;;;7.82;;
23376;SDS011;14353;46.070;13.222;2023-12-29T05:53:17;8.07;;;7.25;;
23376;SDS011;14353;46.070;13.222;2023-12-29T05:55:43;8.38;;;7.45;;
23376;SDS011;14353;46.070;13.222;2023-12-29T05:58:10;8.45;;;6.90;;
23376;SDS011;14353;46.070;13.222;2023-12-29T06:00:36;8.73;;;7.82;;
23376;SDS011;14353;46.070;13.222;2023-12-29T06:03:03;9.68;;;7.97;;
23376;SDS011;14353;46.070;13.222;2023-12-29T06:05:29;8.43;;;7.53;;
23376;SDS011;14353;46.070;13.222;2023-12-29T06:07:55;8.80;;;7.57;;
23376;SDS011;14353;46.070;13.222;2023-12-29T06:10:21;8.60;;;7.25;;
23376;SDS011;14353;46.070;13.222;2023-12-29T06:12:47;8.57;;;7.68;;
23376;SDS011;14353;46.070;13.222;2023-12-29T06:15:13;8.50;;;7.70;;
23376;SDS011;14353;46.070;13.222;2023-12-29T06:17:42;8.52;;;7.63;;
23376;SDS011;14353;46.070;13.222;2023-12-29T06:20:08;7.70;;;7.00;;
23376;SDS011;14353;46.070;13.222;2023-12-29T06:22:39;8.13;;;7.30;;
23376;SDS011;14353;46.070;13.222;2023-12-29T06:25:12;8.35;;;7.38;;
23376;SDS011;14353;46.070;13.222;2023-12-29T06:27:38;8.63;;;7.82;;
23376;SDS011;14353;46.070;13.222;2023-12-29T06:30:08;8.25;;;7.30;;
23376;SDS011;14353;46.070;13.222;2023-12-29T06:32:36;8.25;;;7.30;;
23376;SDS011;14353;46.070;13.222;2023-12-29T06:35:02;8.75;;;7.82;;
23376;SDS011;14353;46.070;13.222;2023-12-29T06:37:28;9.05;;;7.43;;
23376;SDS011;14353;46.070;13.222;2023-12-29T06:39:54;8.13;;;7.32;;
23376;SDS011;14353;46.070;13.222;2023-12-29T06:42:19;8.30;;;7.20;;
23376;SDS011;14353;46.070;13.222;2023-12-29T06:44:45;9.13;;;7.75;;
23376;SDS011;14353;46.070;13.222;2023-12-29T06:47:11;8.25;;;7.13;;
23376;SDS011;14353;46.070;13.222;2023-12-29T06:49:37;7.93;;;6.95;;
23376;SDS011;14353;46.070;13.222;2023-12-29T06:52:04;8.75;;;7.53;;
23376;SDS011;14353;46.070;13.222;2023-12-29T06:54:30;7.88;;;7.07;;
23376;SDS011;14353;46.070;13.222;2023-12-29T06:56:56;8.13;;;7.20;;
23376;SDS011;14353;46.070;13.222;2023-12-29T06:59:22;7.82;;;7.03;;
23376;SDS011;14353;46.070;13.222;2023-12-29T07:01:48;8.13;;;7.13;;
23376;SDS011;14353;46.070;13.222;2023-12-29T07:04:14;7.78;;;6.90;;
23376;SDS011;14353;46.070;13.222;2023-12-29T07:06:40;8.05;;;7.25;;
23376;SDS011;14353;46.070;13.222;2023-12-29T07:09:07;7.22;;;6.53;;
23376;SDS011;14353;46.070;13.222;2023-12-29T07:11:33;7.80;;;7.00;;
23376;SDS011;14353;46.070;13.222;2023-12-29T07:13:59;7.80;;;7.00;;
23376;SDS011;14353;46.070;13.222;2023-12-29T07:16:26;7.32;;;6.63;;
23376;SDS011;14353;46.070;13.222;2023-12-29T07:18:51;8.05;;;6.95;;
23376;SDS011;14353;46.070;13.222;2023-12-29T07:21:17;7.75;;;6.88;;
23376;SDS011;14353;46.070;13.222;2023-12-29T07:23:43;7.65;;;6.85;;
23376;SDS011;14353;46.070;13.222;2023-12-29T07:26:09;7.82;;;7.03;;
23376;SDS011;14353;46.070;13.222;2023-12-29T07:28:35;8.93;;;7.13;;
23376;SDS011;14353;46.070;13.222;2023-12-29T07:31:00;7.75;;;6.93;;
23376;SDS011;14353;46.070;13.222;2023-12-29T07:33:26;8.18;;;7.22;;
23376;SDS011;14353;46.070;13.222;2023-12-29T07:35:52;7.22;;;6.32;;
23376;SDS011;14353;46.070;13.222;2023-12-29T07:38:18;7.90;;;7.10;;
23376;SDS011;14353;46.070;13.222;2023-12-29T07:40:44;8.85;;;7.22;;
23376;SDS011;14353;46.070;13.222;2023-12-29T07:43:10;9.10;;;6.97;;
23376;SDS011;14353;46.070;13.222;2023-12-29T07:45:35;7.97;;;6.90;;
23376;SDS011;14353;46.070;13.222;2023-12-29T07:48:02;7.38;;;6.68;;
23376;SDS011;14353;46.070;13.222;2023-12-29T07:50:28;7.53;;;6.78;;
23376;SDS011;14353;46.070;13.222;2023-12-29T07:52:55;8.02;;;6.55;;
23376;SDS011;14353;46.070;13.222;2023-12-29T07:55:20;10.48;;;7.25;;
23376;SDS011;14353;46.070;13.222;2023-12-29T07:57:46;14.23;;;7.82;;
23376;SDS011;14353;46.070;13.222;2023-12-29T08:00:15;12.30;;;7.75;;
23376;SDS011;14353;46.070;13.222;2023-12-29T08:02:42;13.32;;;7.90;;
23376;SDS011;14353;46.070;13.222;2023-12-29T08:05:07;12.05;;;8.10;;
23376;SDS011;14353;46.070;13.222;2023-12-29T08:07:33;11.35;;;8.05;;
23376;SDS011;14353;46.070;13.222;2023-12-29T08:10:00;13.85;;;8.32;;
23376;SDS011;14353;46.070;13.222;2023-12-29T08:12:26;16.08;;;8.18;;
23376;SDS011;14353;46.070;13.222;2023-12-29T08:14:53;13.93;;;8.68;;
23376;SDS011;14353;46.070;13.222;2023-12-29T08:17:19;18.60;;;9.13;;
23376;SDS011;14353;46.070;13.222;2023-12-29T08:19:44;14.48;;;8.38;;
23376;SDS011;14353;46.070;13.222;2023-12-29T08:22:10;14.60;;;8.85;;
23376;SDS011;14353;46.070;13.222;2023-12-29T08:24:39;19.15;;;8.65;;
23376;SDS011;14353;46.070;13.222;2023-12-29T08:27:08;13.07;;;8.65;;
23376;SDS011;14353;46.070;13.222;2023-12-29T08:29:35;14.05;;;8.80;;
23376;SDS011;14353;46.070;13.222;2023-12-29T08:32:01;12.23;;;8.13;;
23376;SDS011;14353;46.070;13.222;2023-12-29T08:34:27;12.43;;;8.35;;
23376;SDS011;14353;46.070;13.222;2023-12-29T08:36:53;12.57;;;8.35;;
23376;SDS011;14353;46.070;13.222;2023-12-29T08:39:19;12.48;;;8.10;;
23376;SDS011;14353;46.070;13.222;2023-12-29T08:41:44;10.73;;;7.60;;
23376;SDS011;14353;46.070;13.222;2023-12-29T08:44:12;12.85;;;8.38;;
23376;SDS011;14353;46.070;13.222;2023-12-29T08:46:37;13.70;;;8.00;;
23376;SDS011;14353;46.070;13.222;2023-12-29T08:49:03;13.63;;;7.97;;
23376;SDS011;14353;46.070;13.222;2023-12-29T08:51:29;13.48;;;7.90;;
23376;SDS011;14353;46.070;13.222;2023-12-29T08:53:55;12.32;;;7.88;;
23376;SDS011;14353;46.070;13.222;2023-12-29T08:56:20;12.55;;;8.10;;
23376;SDS011;14353;46.070;13.222;2023-12-29T08:58:46;9.40;;;7.40;;
23376;SDS011;14353;46.070;13.222;2023-12-29T09:01:12;15.30;;;8.00;;
23376;SDS011;14353;46.070;13.222;2023-12-29T09:03:38;10.57;;;7.30;;
23376;SDS011;14353;46.070;13.222;2023-12-29T09:06:03;13.77;;;7.90;;
23376;SDS011;14353;46.070;13.222;2023-12-29T09:08:29;12.65;;;7.10;;
23376;SDS011;14353;46.070;13.222;2023-12-29T09:10:55;11.88;;;7.65;;
23376;SDS011;14353;46.070;13.222;2023-12-29T09:13:21;10.48;;;6.97;;
23376;SDS011;14353;46.070;13.222;2023-12-29T09:15:50;11.15;;;6.93;;
23376;SDS011;14353;46.070;13.222;2023-12-29T09:18:16;9.55;;;7.18;;
23376;SDS011;14353;46.070;13.222;2023-12-29T09:20:41;13.93;;;6.70;;
23376;SDS011;14353;46.070;13.222;2023-12-29T09:23:07;14.95;;;7.97;;
23376;SDS011;14353;46.070;13.222;2023-12-29T09:25:33;11.38;;;6.70;;
23376;SDS011;14353;46.070;13.222;2023-12-29T09:27:58;12.65;;;7.18;;
23376;SDS011;14353;46.070;13.222;2023-12-29T09:30:24;10.85;;;7.20;;
23376;SDS011;14353;46.070;13.222;2023-12-29T09:32:50;8.82;;;6.53;;
23376;SDS011;14353;46.070;13.222;2023-12-29T09:35:15;12.40;;;6.78;;
23376;SDS011;14353;46.070;13.222;2023-12-29T09:37:42;13.43;;;7.10;;
23376;SDS011;14353;46.070;13.222;2023-12-29T09:40:09;11.02;;;7.00;;
23376;SDS011;14353;46.070;13.222;2023-12-29T09:42:36;13.38;;;7.43;;
23376;SDS011;14353;46.070;13.222;2023-12-29T09:45:04;9.35;;;6.50;;
23376;SDS011;14353;46.070;13.222;2023-12-29T09:47:34;12.68;;;6.75;;
23376;SDS011;14353;46.070;13.222;2023-12-29T09:50:14;8.55;;;6.55;;
23376;SDS011;14353;46.070;13.222;2023-12-29T09:52:41;9.13;;;6.43;;
23376;SDS011;14353;46.070;13.222;2023-12-29T09:55:08;11.18;;;6.45;;
23376;SDS011;14353;46.070;13.222;2023-12-29T09:57:35;9.38;;;6.65;;
23376;SDS011;14353;46.070;13.222;2023-12-29T10:00:03;10.20;;;6.43;;
23376;SDS011;14353;46.070;13.222;2023-12-29T10:02:29;7.75;;;6.47;;
23376;SDS011;14353;46.070;13.222;2023-12-29T10:04:56;9.50;;;6.47;;
23376;SDS011;14353;46.070;13.222;2023-12-29T10:07:25;9.85;;;7.00;;
23376;SDS011;14353;46.070;13.222;2023-12-29T10:09:54;10.57;;;6.85;;
23376;SDS011;14353;46.070;13.222;2023-12-29T10:12:21;10.00;;;6.28;;
23376;SDS011;14353;46.070;13.222;2023-12-29T10:14:56;10.15;;;6.47;;
23376;SDS011;14353;46.070;13.222;2023-12-29T10:22:51;10.82;;;6.68;;
23376;SDS011;14353;46.070;13.222;2023-12-29T10:25:22;10.27;;;6.22;;
23376;SDS011;14353;46.070;13.222;2023-12-29T10:27:48;8.25;;;6.60;;
23376;SDS011;14353;46.070;13.222;2023-12-29T10:30:14;7.72;;;6.22;;
23376;SDS011;14353;46.070;13.222;2023-12-29T10:32:40;12.25;;;6.85;;
23376;SDS011;14353;46.070;13.222;2023-12-29T10:35:09;7.57;;;5.88;;
23376;SDS011;14353;46.070;13.222;2023-12-29T10:37:37;7.65;;;5.82;;
23376;SDS011;14353;46.070;13.222;2023-12-29T10:40:03;8.00;;;5.88;;
23376;SDS011;14353;46.070;13.222;2023-12-29T10:42:30;8.00;;;5.70;;
23376;SDS011;14353;46.070;13.222;2023-12-29T10:45:08;8.57;;;6.25;;
23376;SDS011;14353;46.070;13.222;2023-12-29T10:47:37;9.15;;;6.18;;
23376;SDS011;14353;46.070;13.222;2023-12-29T10:50:08;7.47;;;5.75;;
23376;SDS011;14353;46.070;13.222;2023-12-29T10:52:34;8.40;;;5.90;;
23376;SDS011;14353;46.070;13.222;2023-12-29T10:55:05;6.70;;;5.85;;
23376;SDS011;14353;46.070;13.222;2023-12-29T10:57:32;6.20;;;5.60;;
23376;SDS011;14353;46.070;13.222;2023-12-29T10:59:58;8.45;;;5.85;;
23376;SDS011;14353;46.070;13.222;2023-12-29T11:02:28;6.70;;;5.80;;
23376;SDS011;14353;46.070;13.222;2023-12-29T11:05:06;8.05;;;5.75;;
23376;SDS011;14353;46.070;13.222;2023-12-29T11:07:34;7.00;;;5.63;;
23376;SDS011;14353;46.070;13.222;2023-12-29T11:10:02;7.40;;;5.47;;
23376;SDS011;14353;46.070;13.222;2023-12-29T11:12:33;7.50;;;5.97;;
23376;SDS011;14353;46.070;13.222;2023-12-29T11:15:01;8.45;;;5.78;;
23376;SDS011;14353;46.070;13.222;2023-12-29T11:17:31;7.85;;;5.80;;
23376;SDS011;14353;46.070;13.222;2023-12-29T11:19:59;7.95;;;5.80;;
23376;SDS011;14353;46.070;13.222;2023-12-29T11:22:27;6.30;;;5.60;;
23376;SDS011;14353;46.070;13.222;2023-12-29T11:24:55;7.03;;;5.57;;
23376;SDS011;14353;46.070;13.222;2023-12-29T11:27:33;6.63;;;5.55;;
23376;SDS011;14353;46.070;13.222;2023-12-29T11:30:00;6.88;;;5.65;;
23376;SDS011;14353;46.070;13.222;2023-12-29T11:38:40;7.78;;;5.32;;
23376;SDS011;14353;46.070;13.222;2023-12-29T11:43:58;6.63;;;5.72;;
23376;SDS011;14353;46.070;13.222;2023-12-29T11:46:35;6.68;;;5.35;;
23376;SDS011;14353;46.070;13.222;2023-12-29T11:49:05;6.00;;;5.40;;
23376;SDS011;14353;46.070;13.222;2023-12-29T11:51:35;5.63;;;5.05;;
23376;SDS011;14353;46.070;13.222;2023-12-29T11:54:04;7.65;;;5.60;;
23376;SDS011;14353;46.070;13.222;2023-12-29T11:56:32;6.40;;;5.43;;
23376;SDS011;14353;46.070;13.222;2023-12-29T12:01:38;6.97;;;5.95;;
23376;SDS011;14353;46.070;13.222;2023-12-29T12:04:04;7.57;;;5.63;;
23376;SDS011;14353;46.070;13.222;2023-12-29T12:06:50;7.18;;;5.65;;
23376;SDS011;14353;46.070;13.222;2023-12-29T12:09:16;6.30;;;5.30;;
23376;SDS011;14353;46.070;13.222;2023-12-29T12:11:46;6.18;;;5.15;;
23376;SDS011;14353;46.070;13.222;2023-12-29T12:17:11;7.15;;;5.60;;
23376;SDS011;14353;46.070;13.222;2023-12-29T12:19:36;6.15;;;5.25;;
23376;SDS011;14353;46.070;13.222;2023-12-29T12:22:03;7.20;;;5.68;;
23376;SDS011;14353;46.070;13.222;2023-12-29T12:24:31;6.90;;;5.40;;
23376;SDS011;14353;46.070;13.222;2023-12-29T12:27:00;6.80;;;4.97;;
23376;SDS011;14353;46.070;13.222;2023-12-29T12:29:27;5.63;;;5.13;;
23376;SDS011;14353;46.070;13.222;2023-12-29T12:31:57;6.82;;;5.38;;
23376;SDS011;14353;46.070;13.222;2023-12-29T12:34:23;7.72;;;5.22;;
23376;SDS011;14353;46.070;13.222;2023-12-29T12:36:52;6.20;;;5.60;;
23376;SDS011;14353;46.070;13.222;2023-12-29T12:39:21;7.60;;;5.87;;
23376;SDS011;14353;46.070;13.222;2023-12-29T12:41:48;6.75;;;5.55;;
23376;SDS011;14353;46.070;13.222;2023-12-29T12:44:14;6.10;;;5.47;;
23376;SDS011;14353;46.070;13.222;2023-12-29T12:49:14;6.53;;;5.88;;
23376;SDS011;14353;46.070;13.222;2023-12-29T12:51:41;6.28;;;5.68;;
23376;SDS011;14353;46.070;13.222;2023-12-29T12:54:08;6.18;;;5.57;;
23376;SDS011;14353;46.070;13.222;2023-12-29T12:56:35;7.38;;;6.15;;
23376;SDS011;14353;46.070;13.222;2023-12-29T12:59:02;6.47;;;5.63;;
23376;SDS011;14353;46.070;13.222;2023-12-29T13:01:28;5.88;;;5.25;;
23376;SDS011;14353;46.070;13.222;2023-12-29T13:03:56;6.32;;;5.70;;
23376;SDS011;14353;46.070;13.222;2023-12-29T13:06:23;6.57;;;5.63;;
23376;SDS011;14353;46.070;13.222;2023-12-29T13:08:50;6.28;;;5.55;;
23376;SDS011;14353;46.070;13.222;2023-12-29T13:11:20;7.22;;;5.82;;
23376;SDS011;14353;46.070;13.222;2023-12-29T13:13:50;8.13;;;5.68;;
23376;SDS011;14353;46.070;13.222;2023-12-29T13:16:31;5.90;;;5.30;;
23376;SDS011;14353;46.070;13.222;2023-12-29T13:19:14;6.85;;;5.65;;
23376;SDS011;14353;46.070;13.222;2023-12-29T13:21:41;6.15;;;5.55;;
23376;SDS011;14353;46.070;13.222;2023-12-29T13:24:07;6.32;;;5.72;;
23376;SDS011;14353;46.070;13.222;2023-12-29T13:26:32;5.93;;;5.32;;
23376;SDS011;14353;46.070;13.222;2023-12-29T13:28:59;6.75;;;5.82;;
23376;SDS011;14353;46.070;13.222;2023-12-29T13:31:24;6.43;;;5.55;;
23376;SDS011;14353;46.070;13.222;2023-12-29T13:36:38;6.57;;;5.63;;
23376;SDS011;14353;46.070;13.222;2023-12-29T13:41:53;5.68;;;5.07;;
23376;SDS011;14353;46.070;13.222;2023-12-29T13:44:23;5.93;;;5.32;;
23376;SDS011;14353;46.070;13.222;2023-12-29T13:46:52;6.00;;;5.38;;
23376;SDS011;14353;46.070;13.222;2023-12-29T13:49:19;5.63;;;5.10;;
23376;SDS011;14353;46.070;13.222;2023-12-29T13:51:44;7.90;;;5.65;;
23376;SDS011;14353;46.070;13.222;2023-12-29T13:54:10;6.35;;;5.15;;
23376;SDS011;14353;46.070;13.222;2023-12-29T13:56:36;6.30;;;5.70;;
23376;SDS011;14353;46.070;13.222;2023-12-29T13:59:02;6.50;;;5.70;;
23376;SDS011;14353;46.070;13.222;2023-12-29T14:01:34;5.68;;;5.18;;
23376;SDS011;14353;46.070;13.222;2023-12-29T14:04:06;7.75;;;5.32;;
23376;SDS011;14353;46.070;13.222;2023-12-29T14:06:42;6.18;;;5.45;;
23376;SDS011;14353;46.070;13.222;2023-12-29T14:09:15;7.25;;;5.82;;
23376;SDS011;14353;46.070;13.222;2023-12-29T14:11:45;7.70;;;5.57;;
23376;SDS011;14353;46.070;13.222;2023-12-29T14:14:21;7.10;;;5.85;;
23376;SDS011;14353;46.070;13.222;2023-12-29T14:16:50;7.00;;;5.50;;
23376;SDS011;14353;46.070;13.222;2023-12-29T14:19:17;6.03;;;5.43;;
23376;SDS011;14353;46.070;13.222;2023-12-29T14:21:43;6.20;;;5.60;;
23376;SDS011;14353;46.070;13.222;2023-12-29T14:24:11;7.15;;;6.00;;
23376;SDS011;14353;46.070;13.222;2023-12-29T14:26:54;6.75;;;5.63;;
23376;SDS011;14353;46.070;13.222;2023-12-29T14:29:24;5.70;;;5.10;;
23376;SDS011;14353;46.070;13.222;2023-12-29T14:31:50;6.55;;;5.80;;
23376;SDS011;14353;46.070;13.222;2023-12-29T14:34:16;5.65;;;5.13;;
23376;SDS011;14353;46.070;13.222;2023-12-29T14:36:42;6.05;;;5.45;;
23376;SDS011;14353;46.070;13.222;2023-12-29T14:39:08;5.82;;;5.32;;
23376;SDS011;14353;46.070;13.222;2023-12-29T14:41:35;6.70;;;5.70;;
23376;SDS011;14353;46.070;13.222;2023-12-29T14:44:01;7.07;;;5.88;;
23376;SDS011;14353;46.070;13.222;2023-12-29T14:46:29;6.20;;;5.60;;
23376;SDS011;14353;46.070;13.222;2023-12-29T14:48:56;6.43;;;5.80;;
23376;SDS011;14353;46.070;13.222;2023-12-29T14:51:23;6.75;;;5.53;;
23376;SDS011;14353;46.070;13.222;2023-12-29T14:53:49;6.35;;;5.63;;
23376;SDS011;14353;46.070;13.222;2023-12-29T14:56:18;5.97;;;5.38;;
23376;SDS011;14353;46.070;13.222;2023-12-29T14:58:44;7.55;;;5.53;;
23376;SDS011;14353;46.070;13.222;2023-12-29T15:01:10;5.72;;;5.22;;
23376;SDS011;14353;46.070;13.222;2023-12-29T15:03:36;6.00;;;5.38;;